Du har inga inställningar för hoppväder.nu

Hoppväder.nu

Senast uppdaterat 00:59

UTC-tid

2022-05-23 kl. 22:59


Sol och måne

Solen går upp 3:58 och går ner 22:44 (beräknade cirkatider)
Nästa fullmåne blir om 21 dagar (2022-06-14)

METAR

ESOW (Västerås)
(9 minuter sedan)
ESOW 232250Z AUTO 11004KT 9999 NCD 09/00 Q1010=



ESSA (Arlanda)
(9 minuter sedan)
ESSA 232250Z 14006KT CAVOK 07/00 Q1010 NOSIG=



ESKN (Skavsta)
(9 minuter sedan)
ESKN 232250Z 13007KT CAVOK 09/06 Q1010=



ESOE (Örebro)
(9 minuter sedan)
ESOE 232250Z 13003KT CAVOK 12/02 Q1009=



ESSD (Borlänge)
(9 minuter sedan)
ESSD 232250Z AUTO 14005KT 9999 FEW062/// 11/04 Q1009=



TAF

ESOW (Västerås)
ESOW



ESSA (Arlanda)
(149 minuter sedan)
ESSA 232030Z 2321/2421 16006KT CAVOK PROB40 2414/2417 15015G25KT=



ESKN (Skavsta)
(149 minuter sedan)
ESKN 232030Z 2321/2421 13006KT CAVOK BECMG 2410/2412 12015G25KT PROB40 2418/2421 RA=



ESOE (Örebro)
(149 minuter sedan)
ESOE 232030Z 2321/2401 13005KT CAVOK=



ESSD (Borlänge)
ESSD





Kodnycklar till TAF och METAR






LHP

(Västerås är område se32e i Delområde 4)

Prognos är inte uppdaterad




Preliminär prognos

ÖVERSIKTLIG PROGNOS FÖR OMRÅDE se3 UTFÄRDAD 231339
GÄLLANDE DEN 24 MAJ 2022 MELLAN 04 OCH 16 UTC


Väderöversikt
En frontzon rör sig in söderifrån under dagen.


Delområde se32

Sikt/Väder/Moln
04-08UTC: Område se32c,se32b,se32j: Sikt 3km - >8km i dis. Molnbas >2000ft.

04-16UTC: Område se32d,se32a,se32h,se32g,se32f,se32e,se32i: Sikt >8km. Molnbas >2000ft.

08-12UTC: Område se32j: Sikt >8km. Molnbas >2000ft.

08-16UTC: Område se32c,se32b: Sikt >8km. Molnbas >2000ft.

12-16UTC: Område se32j: Sikt 5km - >8km i regnskurar, regn. Molnbas 1500ft - >2000ft.


CB/TCU Moln
04-12UTC: Område se32j: Väntas inte förekomma under perioden

04-16UTC: Område se32d,se32c,se32b,se32a,se32h,se32g,se32f,se32e,se32i: Väntas inte förekomma under perioden

12-16UTC: Område se32j: isol embd cb


Vind vid marken
04-08UTC: Område se32h: SO/4-14 knop, byar upp till 23 knop.
Område se32i: O-SO/4-16 knop, byar upp till 24 knop.
Område se32a: SO/1-11 knop, byar upp till 15 knop.
Område se32e: SO/3-9 knop, byar upp till 14 knop.
Område se32j: SO/4-16 knop, byar upp till 26 knop.
Område se32d: SO/2-13 knop, byar upp till 19 knop.
Område se32g: SO/3-9 knop, byar upp till 15 knop.
Område se32b: SO/3-12 knop, byar upp till 16 knop.
Område se32f: SO/1-7 knop, byar upp till 12 knop.
Område se32c: O-SO/3-14 knop, byar upp till 18 knop.

08-12UTC: Område se32h: SO/7-16 knop, byar upp till 26 knop.
Område se32f: SO/5-10 knop, byar upp till 20 knop.
Område se32c: SO/6-17 knop, byar upp till 25 knop.
Område se32d: SO/6-15 knop, byar upp till 23 knop.
Område se32j: SO/7-16 knop, byar upp till 30 knop.
Område se32b: O-SO/6-17 knop, byar upp till 25 knop.
Område se32a: SO/5-14 knop, byar upp till 20 knop.
Område se32g: SO/6-14 knop, byar upp till 25 knop.
Område se32e: SO/6-12 knop, byar upp till 21 knop.
Område se32i: SO/8-17 knop, byar upp till 27 knop.

12-16UTC: Område se32b: O-SO/8-18 knop, byar upp till 32 knop.
Område se32e: SO/7-16 knop, byar upp till 26 knop.
Område se32d: SO/8-19 knop, byar upp till 29 knop.
Område se32i: SO/9-21 knop, byar upp till 32 knop.
Område se32a: SO/6-17 knop, byar upp till 25 knop.
Område se32g: SO/8-18 knop, byar upp till 30 knop.
Område se32f: SO/7-14 knop, byar upp till 24 knop.
Område se32j: SO/9-18 knop, byar upp till 33 knop.
Område se32c: SO/9-19 knop, byar upp till 31 knop.
Område se32h: SO/9-20 knop, byar upp till 33 knop.




Spotting

Hur fungerar spotthjälpen och Vindkartan?

Markvind är ca 0 m/s.



Vindkartan

Senast uppdaterad 00:59




All data kommer från LFV.se